createdAt,value
2022-08-23T00:00:53.102Z,1.80
2022-08-23T00:03:20.043Z,1.70
2022-08-23T00:05:46.997Z,1.60
2022-08-23T00:08:13.838Z,1.70
2022-08-23T00:10:40.792Z,1.70
2022-08-23T00:13:48.180Z,1.90
2022-08-23T00:16:50.345Z,1.70
2022-08-23T00:19:39.407Z,2.20
2022-08-23T00:22:59.957Z,1.70
2022-08-23T00:25:30.235Z,1.70
2022-08-23T00:28:31.409Z,1.70
2022-08-23T00:31:07.649Z,1.60
2022-08-23T00:33:37.260Z,1.80
2022-08-23T00:36:30.014Z,2.20
2022-08-23T00:40:20.703Z,1.70
2022-08-23T00:44:11.101Z,2.00
2022-08-23T00:48:07.978Z,1.60
2022-08-23T00:51:52.071Z,2.30
2022-08-23T00:55:21.563Z,2.00
2022-08-23T00:58:28.248Z,1.90
2022-08-23T01:01:18.391Z,1.70
2022-08-23T01:04:34.490Z,1.80
2022-08-23T01:07:54.879Z,1.80
2022-08-23T01:11:35.065Z,1.90
2022-08-23T01:14:14.192Z,2.20
2022-08-23T01:16:50.678Z,1.80
2022-08-23T01:19:35.639Z,1.60
2022-08-23T01:22:09.768Z,1.90
2022-08-23T01:24:57.787Z,2.00
2022-08-23T01:27:25.960Z,1.90
2022-08-23T01:30:33.318Z,1.90
2022-08-23T01:37:19.876Z,1.70
2022-08-23T01:40:50.415Z,1.90
2022-08-23T01:43:52.071Z,2.10
2022-08-23T01:47:31.652Z,2.00
2022-08-23T01:51:39.771Z,2.00
2022-08-23T01:55:17.540Z,1.90
2022-08-23T01:58:23.025Z,2.20
2022-08-23T02:02:20.005Z,1.80
2022-08-23T02:05:25.406Z,2.00
2022-08-23T02:08:53.659Z,1.90
2022-08-23T02:12:28.173Z,1.60
2022-08-23T02:15:51.971Z,2.30
2022-08-23T02:19:10.373Z,1.70
2022-08-23T02:22:07.624Z,2.10
2022-08-23T02:24:46.372Z,1.80
2022-08-23T02:27:20.031Z,1.80
2022-08-23T02:29:58.459Z,1.90
2022-08-23T02:32:46.396Z,1.80
2022-08-23T02:35:25.810Z,2.10
2022-08-23T02:37:53.280Z,1.90
2022-08-23T02:40:23.251Z,2.00
2022-08-23T02:43:05.674Z,2.10
2022-08-23T02:45:55.342Z,1.70
2022-08-23T02:48:28.442Z,1.80
2022-08-23T02:51:07.662Z,2.20
2022-08-23T02:53:42.333Z,1.90
2022-08-23T02:56:30.819Z,2.10
2022-08-23T03:00:01.072Z,2.10
2022-08-23T03:03:14.119Z,2.30
2022-08-23T03:07:04.782Z,1.90
2022-08-23T03:10:26.976Z,1.80
2022-08-23T03:14:28.196Z,2.10
2022-08-23T03:17:46.402Z,2.40
2022-08-23T03:20:59.657Z,2.20
2022-08-23T03:24:47.611Z,1.90
2022-08-23T03:28:17.556Z,2.00
2022-08-23T03:31:59.732Z,2.30
2022-08-23T03:35:32.612Z,2.20
2022-08-23T03:39:18.477Z,2.20
2022-08-23T03:43:17.509Z,2.30
2022-08-23T03:46:50.293Z,2.00
2022-08-23T03:50:51.290Z,2.20
2022-08-23T03:54:42.341Z,2.40
2022-08-23T03:59:50.209Z,2.30
2022-08-23T04:02:18.437Z,2.20
2022-08-23T04:04:46.059Z,2.30
2022-08-23T04:07:51.880Z,2.60
2022-08-23T04:10:21.508Z,2.70
2022-08-23T04:13:05.154Z,2.30
2022-08-23T04:16:28.981Z,2.30
2022-08-23T04:20:04.373Z,2.10
2022-08-23T04:23:54.790Z,2.50
2022-08-23T04:27:45.046Z,2.70
2022-08-23T04:30:55.447Z,2.60
2022-08-23T04:33:52.780Z,2.60
2022-08-23T04:36:47.863Z,2.40
2022-08-23T04:39:19.964Z,2.40
2022-08-23T04:42:05.981Z,2.30
2022-08-23T04:44:43.855Z,2.30
2022-08-23T04:47:40.438Z,2.80
2022-08-23T04:50:25.556Z,2.60
2022-08-23T04:53:57.387Z,2.70
2022-08-23T04:58:10.180Z,2.80
2022-08-23T05:02:06.515Z,2.70
2022-08-23T05:05:47.315Z,2.90
2022-08-23T05:08:55.173Z,2.80
2022-08-23T05:12:06.277Z,2.30
2022-08-23T05:15:36.977Z,3.20
2022-08-23T05:19:24.737Z,2.70
2022-08-23T05:23:32.185Z,2.80
2022-08-23T05:26:48.484Z,2.90
2022-08-23T05:29:18.627Z,3.00
2022-08-23T05:31:49.773Z,2.80
2022-08-23T05:34:17.983Z,2.90
2022-08-23T05:36:56.588Z,2.80
2022-08-23T05:39:36.227Z,3.20
2022-08-23T05:42:18.160Z,3.30
2022-08-23T05:47:47.354Z,2.90
2022-08-23T05:50:31.421Z,2.90
2022-08-23T05:52:59.242Z,3.00
2022-08-23T05:55:27.621Z,3.30
2022-08-23T05:58:34.138Z,2.90
2022-08-23T06:01:03.401Z,3.10
2022-08-23T06:03:30.998Z,3.30
2022-08-23T06:06:18.778Z,3.00
2022-08-23T06:08:48.381Z,2.70
2022-08-23T06:11:22.593Z,2.90
2022-08-23T06:13:53.967Z,3.30
2022-08-23T06:16:27.178Z,3.00
2022-08-23T06:18:56.200Z,2.90
2022-08-23T06:21:46.489Z,3.10
2022-08-23T06:24:14.305Z,3.00
2022-08-23T06:27:00.028Z,3.00
2022-08-23T06:29:27.412Z,3.00
2022-08-23T06:32:14.320Z,2.90
2022-08-23T06:35:18.964Z,2.70
2022-08-23T06:38:05.303Z,3.20
2022-08-23T06:40:50.607Z,3.60
2022-08-23T06:43:27.711Z,3.10
2022-08-23T06:46:15.056Z,3.00
2022-08-23T06:48:46.130Z,2.90
2022-08-23T06:51:23.733Z,3.20
2022-08-23T06:54:03.094Z,3.00
2022-08-23T06:56:53.985Z,2.60
2022-08-23T06:59:27.242Z,2.70
2022-08-23T07:02:14.752Z,2.60
2022-08-23T07:04:57.521Z,2.70
2022-08-23T07:07:44.832Z,2.80
2022-08-23T07:10:15.695Z,2.90
2022-08-23T07:12:44.133Z,2.70
2022-08-23T07:15:13.812Z,3.00
2022-08-23T07:17:44.787Z,3.00
2022-08-23T07:20:21.943Z,2.70
2022-08-23T07:22:56.265Z,2.10
2022-08-23T07:25:31.087Z,2.70
2022-08-23T07:28:11.113Z,2.60
2022-08-23T07:31:14.667Z,2.40
2022-08-23T07:34:20.019Z,2.70
2022-08-23T07:37:26.370Z,2.60
2022-08-23T07:40:38.727Z,2.60
2022-08-23T07:48:02.496Z,2.30
2022-08-23T07:52:12.146Z,3.00
2022-08-23T07:55:53.027Z,2.50
2022-08-23T07:59:58.325Z,2.20
2022-08-23T08:03:57.369Z,1.80
2022-08-23T08:07:22.353Z,2.40
2022-08-23T08:09:58.739Z,2.30
2022-08-23T08:12:28.326Z,2.40
2022-08-23T08:14:56.714Z,2.10
2022-08-23T08:17:28.174Z,1.90
2022-08-23T08:20:31.026Z,1.90
2022-08-23T08:23:20.094Z,1.90
2022-08-23T08:26:08.935Z,1.70
2022-08-23T08:28:40.107Z,1.70
2022-08-23T08:31:08.214Z,2.10
2022-08-23T08:33:35.749Z,1.70
2022-08-23T08:36:04.773Z,1.80
2022-08-23T08:38:38.797Z,1.70
2022-08-23T08:41:22.413Z,1.60
2022-08-23T08:44:01.718Z,1.80
2022-08-23T08:46:51.549Z,1.50
2022-08-23T08:49:48.247Z,1.60
2022-08-23T08:52:22.461Z,1.60
2022-08-23T08:54:56.561Z,1.40
2022-08-23T08:57:27.834Z,1.80
2022-08-23T08:59:55.466Z,2.10
2022-08-23T09:02:32.410Z,2.00
2022-08-23T09:05:22.358Z,1.90
2022-08-23T09:08:28.188Z,1.90
2022-08-23T09:11:00.654Z,1.70
2022-08-23T09:14:02.833Z,1.90
2022-08-23T09:16:54.753Z,1.80
2022-08-23T09:19:27.927Z,1.80
2022-08-23T09:22:13.442Z,1.70
2022-08-23T09:24:43.148Z,1.70
2022-08-23T09:27:20.959Z,1.70
2022-08-23T09:30:14.123Z,1.90
2022-08-23T09:32:50.056Z,1.70
2022-08-23T09:35:44.165Z,2.30
2022-08-23T09:38:43.436Z,1.90
2022-08-23T09:41:22.449Z,1.60
2022-08-23T09:43:52.478Z,1.80
2022-08-23T09:46:31.477Z,1.60
2022-08-23T09:49:36.320Z,1.50
2022-08-23T09:52:22.306Z,1.50
2022-08-23T09:56:02.011Z,1.40
2022-08-23T09:58:40.715Z,1.40
2022-08-23T10:01:18.414Z,1.80
2022-08-23T10:04:13.571Z,1.70
2022-08-23T10:06:46.432Z,2.40
2022-08-23T10:09:33.096Z,2.10
2022-08-23T10:12:09.277Z,1.80
2022-08-23T10:14:43.639Z,1.70
2022-08-23T10:17:52.914Z,1.50
2022-08-23T10:20:52.449Z,1.80
2022-08-23T10:23:47.135Z,1.80
2022-08-23T10:26:25.356Z,1.80
2022-08-23T10:29:53.417Z,2.40
2022-08-23T10:32:46.457Z,1.90
2022-08-23T10:35:57.732Z,2.20
2022-08-23T10:38:50.008Z,2.20
2022-08-23T10:41:39.074Z,2.60
2022-08-23T10:44:53.016Z,1.80
2022-08-23T10:47:49.812Z,1.50
2022-08-23T10:50:55.450Z,1.50
2022-08-23T10:54:12.641Z,1.60
2022-08-23T10:56:51.028Z,1.20
2022-08-23T10:59:46.744Z,1.30
2022-08-23T11:02:49.605Z,1.10
2022-08-23T11:05:39.100Z,1.30
2022-08-23T11:08:47.510Z,1.30
2022-08-23T11:11:46.642Z,1.20
2022-08-23T11:14:47.304Z,1.40
2022-08-23T11:18:01.984Z,1.40
2022-08-23T11:21:15.851Z,1.50
2022-08-23T11:24:23.976Z,1.30
2022-08-23T11:26:51.526Z,1.20
2022-08-23T11:30:02.058Z,1.50
2022-08-23T11:32:43.281Z,1.30
2022-08-23T11:35:23.561Z,1.10
2022-08-23T11:38:02.237Z,1.00
2022-08-23T11:41:14.236Z,1.20
2022-08-23T11:43:57.199Z,1.10
2022-08-23T11:46:37.247Z,1.00
2022-08-23T11:49:50.378Z,0.90
2022-08-23T11:52:58.074Z,1.00
2022-08-23T11:55:54.620Z,0.90
2022-08-23T11:58:30.475Z,1.20
2022-08-23T12:01:31.929Z,1.10
2022-08-23T12:04:10.736Z,0.80
2022-08-23T12:07:44.502Z,1.00
2022-08-23T12:11:52.497Z,1.10
2022-08-23T12:15:46.174Z,0.90
2022-08-23T12:19:29.399Z,1.10
2022-08-23T12:22:49.837Z,1.10
2022-08-23T12:25:46.552Z,0.80
2022-08-23T12:28:46.643Z,1.30
2022-08-23T12:31:55.872Z,0.80
2022-08-23T12:34:43.600Z,0.90
2022-08-23T12:37:39.627Z,0.90
2022-08-23T12:40:23.432Z,0.90
2022-08-23T12:43:22.768Z,1.10
2022-08-23T12:46:01.136Z,1.20
2022-08-23T12:48:33.248Z,3.60
2022-08-23T12:51:15.711Z,1.00
2022-08-23T12:54:54.833Z,1.50
2022-08-23T12:57:38.316Z,1.10
2022-08-23T13:00:17.449Z,1.10
2022-08-23T13:03:23.234Z,1.00
2022-08-23T13:06:19.499Z,1.10
2022-08-23T13:09:15.496Z,1.20
2022-08-23T13:11:59.485Z,1.10
2022-08-23T13:14:41.296Z,1.00
2022-08-23T13:17:40.049Z,0.90
2022-08-23T13:20:38.808Z,1.20
2022-08-23T13:23:27.783Z,1.40
2022-08-23T13:27:38.542Z,1.20
2022-08-23T13:30:58.269Z,1.20
2022-08-23T13:33:41.113Z,1.10
2022-08-23T13:37:24.397Z,0.90
2022-08-23T13:41:38.527Z,1.00
2022-08-23T13:45:46.907Z,1.30
2022-08-23T13:49:40.496Z,1.10
2022-08-23T13:53:02.772Z,1.00
2022-08-23T13:55:11.467Z,1.30
2022-08-23T13:57:46.842Z,1.20
2022-08-23T14:03:53.414Z,1.20
2022-08-23T14:08:01.362Z,1.30
2022-08-23T14:10:31.293Z,0.90
2022-08-23T14:14:01.276Z,1.10
2022-08-23T14:17:12.924Z,1.20
2022-08-23T14:22:55.062Z,1.20
2022-08-23T14:25:21.987Z,1.30
2022-08-23T14:27:49.619Z,1.00
2022-08-23T14:30:32.473Z,1.20
2022-08-23T14:33:00.823Z,1.20
2022-08-23T14:35:28.502Z,1.20
2022-08-23T14:38:05.833Z,0.90
2022-08-23T14:40:36.076Z,0.90
2022-08-23T14:43:23.749Z,1.20
2022-08-23T14:45:55.125Z,1.40
2022-08-23T14:48:23.656Z,1.00
2022-08-23T14:50:52.444Z,1.00
2022-08-23T14:53:24.570Z,1.10
2022-08-23T14:56:20.664Z,1.10
2022-08-23T14:58:50.594Z,1.10
2022-08-23T15:01:19.156Z,1.20
2022-08-23T15:03:47.668Z,1.00
2022-08-23T15:07:27.039Z,1.30
2022-08-23T15:15:00.898Z,1.20
2022-08-23T15:18:28.518Z,1.10
2022-08-23T15:21:56.156Z,1.30
2022-08-23T15:26:03.291Z,1.00
2022-08-23T15:30:11.228Z,1.00
2022-08-23T15:34:12.717Z,1.10
2022-08-23T15:38:19.546Z,1.20
2022-08-23T15:41:42.271Z,1.20
2022-08-23T15:45:50.460Z,1.20
2022-08-23T15:48:50.854Z,1.50
2022-08-23T15:51:52.353Z,1.70
2022-08-23T15:54:39.883Z,1.30
2022-08-23T15:57:28.459Z,1.40
2022-08-23T16:00:27.384Z,1.20
2022-08-23T16:03:20.579Z,1.10
2022-08-23T16:05:48.929Z,0.90
2022-08-23T16:08:32.765Z,1.20
2022-08-23T16:11:01.881Z,1.30
2022-08-23T16:13:28.904Z,1.30
2022-08-23T16:15:56.318Z,1.20
2022-08-23T16:18:30.453Z,1.20
2022-08-23T16:21:03.700Z,1.30
2022-08-23T16:23:31.045Z,1.30
2022-08-23T16:26:01.232Z,1.30
2022-08-23T16:28:31.833Z,1.30
2022-08-23T16:30:58.976Z,1.40
2022-08-23T16:33:29.262Z,1.20
2022-08-23T16:35:56.290Z,1.20
2022-08-23T16:38:23.233Z,1.20
2022-08-23T16:40:53.071Z,1.10
2022-08-23T16:43:20.166Z,1.20
2022-08-23T16:45:47.249Z,1.20
2022-08-23T16:48:14.937Z,1.40
2022-08-23T16:50:42.399Z,1.20
2022-08-23T16:53:09.480Z,1.20
2022-08-23T16:55:38.035Z,1.40
2022-08-23T16:58:29.529Z,1.40
2022-08-23T17:01:25.961Z,1.30
2022-08-23T17:04:24.625Z,1.30
2022-08-23T17:07:20.629Z,1.50
2022-08-23T17:10:14.930Z,1.20
2022-08-23T17:13:22.761Z,1.40
2022-08-23T17:16:13.053Z,1.50
2022-08-23T17:18:41.024Z,1.60
2022-08-23T17:21:18.922Z,1.80
2022-08-23T17:23:59.217Z,1.60
2022-08-23T17:26:33.267Z,1.50
2022-08-23T17:29:17.041Z,1.30
2022-08-23T17:32:00.846Z,1.50
2022-08-23T17:34:36.799Z,1.80
2022-08-23T17:37:20.219Z,1.80
2022-08-23T17:39:58.112Z,1.50
2022-08-23T17:42:28.289Z,1.50
2022-08-23T17:44:58.238Z,1.70
2022-08-23T17:47:34.673Z,1.60
2022-08-23T17:50:03.861Z,1.60
2022-08-23T17:52:30.760Z,1.60
2022-08-23T17:54:58.045Z,1.80
2022-08-23T17:57:25.429Z,1.90
2022-08-23T18:00:01.413Z,1.70
2022-08-23T18:02:31.507Z,1.80
2022-08-23T18:04:59.331Z,2.00
2022-08-23T18:07:26.801Z,2.10
2022-08-23T18:09:53.661Z,2.40
2022-08-23T18:12:20.479Z,2.20
2022-08-23T18:14:47.539Z,2.20
2022-08-23T18:17:14.305Z,2.40
2022-08-23T18:19:41.481Z,2.20
2022-08-23T18:22:08.878Z,2.20
2022-08-23T18:24:45.176Z,2.50
2022-08-23T18:27:31.234Z,2.40
2022-08-23T18:29:58.940Z,2.50
2022-08-23T18:32:26.382Z,5.90
2022-08-23T18:34:53.385Z,3.20
2022-08-23T18:37:21.888Z,4.10
2022-08-23T18:39:49.371Z,3.00
2022-08-23T18:42:16.827Z,6.10
2022-08-23T18:44:44.106Z,4.40
2022-08-23T18:47:10.887Z,4.80
2022-08-23T18:49:38.799Z,7.40
2022-08-23T18:52:06.361Z,3.70
2022-08-23T18:54:34.101Z,3.00
2022-08-23T18:57:05.200Z,2.50
2022-08-23T18:59:32.674Z,3.00
2022-08-23T19:01:59.922Z,2.70
2022-08-23T19:04:27.179Z,4.60
2022-08-23T19:06:54.601Z,3.50
2022-08-23T19:09:21.676Z,2.40
2022-08-23T19:11:48.619Z,2.20
2022-08-23T19:14:15.819Z,2.00
2022-08-23T19:16:47.959Z,2.20
2022-08-23T19:19:15.464Z,2.50
2022-08-23T19:22:17.026Z,2.40
2022-08-23T19:25:15.952Z,2.50
2022-08-23T19:27:42.775Z,2.30
2022-08-23T19:30:11.021Z,2.50
2022-08-23T19:32:42.014Z,2.00
2022-08-23T19:35:10.331Z,2.50
2022-08-23T19:37:38.452Z,1.80
2022-08-23T19:40:07.359Z,2.40
2022-08-23T19:42:37.098Z,2.60
2022-08-23T19:45:06.343Z,2.20
2022-08-23T19:47:34.813Z,2.70
2022-08-23T19:50:04.887Z,2.50
2022-08-23T19:52:32.501Z,2.20
2022-08-23T19:55:05.312Z,2.40
2022-08-23T19:57:33.329Z,1.80
2022-08-23T20:00:01.656Z,1.80
2022-08-23T20:02:32.514Z,2.70
2022-08-23T20:05:00.065Z,1.80
2022-08-23T20:07:26.777Z,1.50
2022-08-23T20:09:53.509Z,1.60
2022-08-23T20:12:20.645Z,1.80
2022-08-23T20:14:49.731Z,1.80
2022-08-23T20:17:17.292Z,1.60
2022-08-23T20:19:47.140Z,1.90
2022-08-23T20:22:33.142Z,1.70
2022-08-23T20:25:10.597Z,1.80
2022-08-23T20:27:38.302Z,1.80
2022-08-23T20:30:10.054Z,2.00
2022-08-23T20:32:37.613Z,1.70
2022-08-23T20:35:06.825Z,2.00
2022-08-23T20:37:35.093Z,1.70
2022-08-23T20:40:03.294Z,1.70
2022-08-23T20:42:30.428Z,1.70
2022-08-23T20:44:57.358Z,2.40
2022-08-23T20:47:24.603Z,1.90
2022-08-23T20:49:51.743Z,1.60
2022-08-23T20:52:19.009Z,2.00
2022-08-23T20:54:46.446Z,1.50
2022-08-23T20:57:13.729Z,2.00
2022-08-23T20:59:49.789Z,1.90
2022-08-23T21:02:16.770Z,1.80
2022-08-23T21:04:43.477Z,1.50
2022-08-23T21:07:11.345Z,1.90
2022-08-23T21:09:39.294Z,1.60
2022-08-23T21:12:06.569Z,1.80
2022-08-23T21:14:33.813Z,1.80
2022-08-23T21:17:01.074Z,2.00
2022-08-23T21:19:30.249Z,1.80
2022-08-23T21:21:58.542Z,1.30
2022-08-23T21:24:26.293Z,1.80
2022-08-23T21:26:53.211Z,2.00
2022-08-23T21:29:19.964Z,1.60
2022-08-23T21:31:49.472Z,1.90
2022-08-23T21:34:17.548Z,1.60
2022-08-23T21:36:44.722Z,1.50
2022-08-23T21:39:11.661Z,1.40
2022-08-23T21:41:43.230Z,1.40
2022-08-23T21:44:16.766Z,1.80
2022-08-23T21:46:47.424Z,1.40
2022-08-23T21:49:16.254Z,1.30
2022-08-23T21:51:45.038Z,1.40
2022-08-23T21:54:13.439Z,1.40
2022-08-23T21:56:41.691Z,1.70
2022-08-23T21:59:11.306Z,1.40
2022-08-23T22:01:39.098Z,1.30
2022-08-23T22:04:08.681Z,1.40
2022-08-23T22:06:37.141Z,1.40
2022-08-23T22:09:07.700Z,1.30
2022-08-23T22:11:40.608Z,1.50
2022-08-23T22:14:10.001Z,1.70
2022-08-23T22:16:37.525Z,1.30
2022-08-23T22:19:04.983Z,1.40
2022-08-23T22:21:31.665Z,1.50
2022-08-23T22:24:03.027Z,1.50
2022-08-23T22:26:30.545Z,1.60
2022-08-23T22:28:57.414Z,1.20
2022-08-23T22:31:24.826Z,1.80
2022-08-23T22:33:52.913Z,1.50
2022-08-23T22:36:22.204Z,1.30
2022-08-23T22:38:50.588Z,1.30
2022-08-23T22:41:24.105Z,1.90
2022-08-23T22:43:59.536Z,1.40
2022-08-23T22:46:28.817Z,1.70
2022-08-23T22:48:56.259Z,1.60
2022-08-23T22:51:27.356Z,1.50
2022-08-23T22:53:58.687Z,1.30
2022-08-23T22:56:29.460Z,1.40
2022-08-23T22:58:57.318Z,2.60
2022-08-23T23:01:26.135Z,2.70
2022-08-23T23:03:54.819Z,2.40
2022-08-23T23:06:22.881Z,2.10
2022-08-23T23:08:50.877Z,1.90
2022-08-23T23:11:19.698Z,1.60
2022-08-23T23:13:47.487Z,1.40
2022-08-23T23:16:17.682Z,2.00
2022-08-23T23:19:05.322Z,1.70
2022-08-23T23:21:43.819Z,1.50
2022-08-23T23:24:13.332Z,1.50
2022-08-23T23:26:40.908Z,1.40
2022-08-23T23:29:08.280Z,1.30
2022-08-23T23:31:36.539Z,1.60
2022-08-23T23:34:03.996Z,1.60
2022-08-23T23:36:31.089Z,1.60
2022-08-23T23:38:58.069Z,2.00
2022-08-23T23:41:25.659Z,1.80
2022-08-23T23:43:52.608Z,1.50
2022-08-23T23:46:23.898Z,1.20
2022-08-23T23:48:51.720Z,1.70
2022-08-23T23:51:27.317Z,1.70
2022-08-23T23:53:56.138Z,1.20
2022-08-23T23:56:23.931Z,1.60
2022-08-23T23:58:55.397Z,2.10
